Time;durP1;ratioP1;P1;durP2;ratioP2;P2;SDS_P1;SDS_P2;PMS_P1;PMS_P2;Temp;Humidity;BMP_temperature;BMP_pressure;BME280_temperature;BME280_humidity;BME280_pressure;Samples;Min_cycle;Max_cycle;Signal;HPM_P1;HPM_P2
2023/04/22 00:02:25;;;;;;;5.43;4.53;;;;;;;14.27;63.88;99210.50;5072183;28;20034;-76
2023/04/22 00:04:51;;;;;;;5.10;4.60;;;;;;;14.35;63.86;99217.41;5069932;28;20013;-77
2023/04/22 00:07:17;;;;;;;5.10;4.57;;;;;;;14.45;63.82;99241.72;5071415;28;20032;-77
2023/04/22 00:09:43;;;;;;;4.40;4.00;;;;;;;14.83;63.87;99304.72;5072124;28;20085;-76
2023/04/22 00:12:10;;;;;;;4.63;4.22;;;;;;;14.84;64.02;99295.72;5072042;28;20020;-76
2023/04/22 00:14:36;;;;;;;4.88;4.32;;;;;;;14.84;64.11;99296.53;5072197;28;20028;-77
2023/04/22 00:17:02;;;;;;;4.50;4.07;;;;;;;14.40;63.71;99244.16;5072118;28;20425;-77
2023/04/22 00:19:27;;;;;;;4.47;4.07;;;;;;;14.50;63.95;99249.88;5072029;28;20146;-77
2023/04/22 00:21:53;;;;;;;4.65;4.15;;;;;;;14.82;63.83;99295.94;5071955;28;20023;-76
2023/04/22 00:24:18;;;;;;;4.32;4.00;;;;;;;14.07;63.60;99174.38;5070514;28;20558;-76
2023/04/22 00:26:44;;;;;;;4.63;4.22;;;;;;;14.22;63.77;99223.59;5071615;28;20577;-77
2023/04/22 00:29:09;;;;;;;4.80;4.40;;;;;;;14.75;64.14;99295.16;5071968;28;20029;-77
2023/04/22 00:31:35;;;;;;;5.00;4.53;;;;;;;14.73;64.11;99289.22;5070667;28;20016;-76
2023/04/22 00:34:00;;;;;;;4.45;4.05;;;;;;;14.71;64.28;99296.59;5071794;28;20017;-77
2023/04/22 00:36:26;;;;;;;4.57;4.18;;;;;;;14.62;64.61;99282.72;5071727;28;20056;-77
2023/04/22 00:38:52;;;;;;;5.43;4.28;;;;;;;14.68;64.51;99294.34;5071687;28;20518;-76
2023/04/22 00:41:17;;;;;;;4.35;3.95;;;;;;;14.68;64.52;99312.13;5071579;28;20028;-77
2023/04/22 00:43:43;;;;;;;4.63;4.13;;;;;;;14.55;64.76;99283.78;5071876;28;20099;-74
2023/04/22 00:46:09;;;;;;;5.00;4.50;;;;;;;14.16;64.96;99239.53;5071739;28;20029;-78
2023/04/22 00:48:38;;;;;;;6.22;4.68;;;;;;;14.52;64.92;99286.84;5071882;28;20099;-78
2023/04/22 00:51:04;;;;;;;5.22;4.72;;;;;;;14.60;65.05;99303.38;5087370;28;20024;-77
2023/04/22 00:53:30;;;;;;;5.43;4.93;;;;;;;14.59;65.18;99299.09;5087128;28;20024;-77
2023/04/22 00:55:55;;;;;;;8.90;5.88;;;;;;;14.23;65.41;99248.31;5070302;28;20025;-78
2023/04/22 00:58:24;;;;;;;7.93;5.95;;;;;;;14.54;65.12;99298.91;5071132;28;20109;-77
2023/04/22 01:00:50;;;;;;;7.28;5.70;;;;;;;14.26;65.55;99254.00;5069963;28;20028;-76
2023/04/22 01:03:19;;;;;;;7.15;5.90;;;;;;;13.96;65.21;99258.13;5070287;28;20017;-77
2023/04/22 01:05:45;;;;;;;6.40;5.80;;;;;;;14.13;65.36;99246.09;5070081;28;20028;-76
2023/04/22 01:08:11;;;;;;;6.80;6.10;;;;;;;14.05;65.58;99224.22;5071436;28;20021;-77
2023/04/22 01:10:36;;;;;;;8.70;6.75;;;;;;;14.55;65.45;99295.22;5071084;28;20016;-77
2023/04/22 01:13:02;;;;;;;6.70;5.53;;;;;;;14.53;65.36;99301.78;5071131;28;20029;-79
2023/04/22 01:15:27;;;;;;;6.55;5.85;;;;;;;14.08;65.31;99231.78;5071192;28;20099;-78
2023/04/22 01:17:53;;;;;;;7.97;5.22;;;;;;;14.53;65.26;99305.25;5069931;28;20181;-77
2023/04/22 01:20:20;;;;;;;6.65;5.82;;;;;;;14.01;65.19;99231.78;5071175;28;20049;-77
2023/04/22 01:22:49;;;;;;;5.57;4.93;;;;;;;14.25;65.31;99252.38;5071363;28;20032;-78
2023/04/22 01:25:15;;;;;;;5.57;4.95;;;;;;;14.59;65.40;99303.59;5071177;28;20032;-78
2023/04/22 01:27:41;;;;;;;5.88;5.28;;;;;;;14.38;65.24;99277.25;5070009;28;20036;-77
2023/04/22 01:30:07;;;;;;;7.25;5.90;;;;;;;14.48;65.01;99305.06;5071125;28;20509;-78
2023/04/22 01:32:33;;;;;;;11.02;6.32;;;;;;;13.95;65.14;99228.13;5071236;28;20405;-77
2023/04/22 01:34:58;;;;;;;7.10;6.40;;;;;;;13.89;65.57;99226.28;5070927;28;20032;-77
2023/04/22 01:37:24;;;;;;;9.00;7.80;;;;;;;13.75;65.49;99227.34;5069805;28;20025;-76
2023/04/22 01:39:50;;;;;;;9.43;8.23;;;;;;;14.32;65.56;99308.13;5071152;28;20027;-78
2023/04/22 01:42:16;;;;;;;10.07;8.88;;;;;;;13.58;65.65;99192.47;5071055;28;20490;-77
2023/04/22 01:44:41;;;;;;;6.57;5.97;;;;;;;13.85;65.70;99242.84;5070956;28;20054;-77
2023/04/22 01:47:07;;;;;;;7.68;5.90;;;;;;;13.95;65.60;99245.88;5070882;28;20021;-77
2023/04/22 01:49:32;;;;;;;5.72;5.22;;;;;;;14.35;65.64;99302.41;5070966;28;20025;-77
2023/04/22 01:51:58;;;;;;;6.00;5.40;;;;;;;14.16;65.70;99287.34;5071181;28;20096;-78
2023/04/22 01:54:23;;;;;;;8.80;7.63;;;;;;;14.08;65.84;99272.41;5070426;28;20535;-78
2023/04/22 01:56:50;;;;;;;8.43;7.53;;;;;;;14.25;65.98;99300.19;5070922;28;20032;-78
2023/04/22 01:59:15;;;;;;;8.30;6.47;;;;;;;13.88;65.99;99240.59;5071078;28;20485;-78
2023/04/22 02:01:41;;;;;;;7.47;6.78;;;;;;;13.56;65.66;99194.50;5069410;28;20082;-76
2023/04/22 02:04:06;;;;;;;8.68;6.57;;;;;;;13.96;65.57;99261.59;5070780;28;20020;-78
2023/04/22 02:06:32;;;;;;;8.10;7.13;;;;;;;13.95;65.73;99273.25;5070815;28;20027;-77
2023/04/22 02:08:57;;;;;;;7.90;7.10;;;;;;;13.87;65.99;99256.72;5070663;28;20024;-78
2023/04/22 02:11:22;;;;;;;8.90;8.10;;;;;;;14.28;65.82;99313.03;5070685;28;20025;-77
2023/04/22 02:13:48;;;;;;;9.18;8.25;;;;;;;14.18;65.97;99303.88;5070682;28;20428;-77
2023/04/22 02:16:14;;;;;;;9.57;8.63;;;;;;;13.83;65.80;99245.69;5070652;28;20016;-78
2023/04/22 02:18:39;;;;;;;9.43;8.30;;;;;;;14.14;65.81;99290.19;5070931;28;20104;-78
2023/04/22 02:21:05;;;;;;;10.38;8.48;;;;;;;13.82;65.87;99254.69;5070693;28;20028;-78
2023/04/22 02:23:30;;;;;;;9.32;8.43;;;;;;;14.08;66.02;99298.13;5070892;28;20025;-77
2023/04/22 02:25:56;;;;;;;8.57;7.75;;;;;;;13.74;66.17;99235.50;5070537;28;20070;-77
2023/04/22 02:28:21;;;;;;;9.07;8.18;;;;;;;14.18;66.15;99303.88;5070679;28;20412;-77
2023/04/22 02:30:47;;;;;;;9.10;8.20;;;;;;;14.08;66.05;99290.19;5071775;28;20078;-78
2023/04/22 02:33:13;;;;;;;10.95;9.25;;;;;;;14.19;66.50;99302.84;5074270;28;20468;-77
2023/04/22 02:35:38;;;;;;;11.85;10.40;;;;;;;14.06;66.21;99286.91;5072792;28;20028;-78
2023/04/22 02:38:04;;;;;;;10.88;9.68;;;;;;;14.15;66.14;99310.41;5074053;28;20066;-76
2023/04/22 02:40:29;;;;;;;9.75;8.85;;;;;;;13.80;66.38;99245.28;5072505;28;20032;-78
2023/04/22 02:42:55;;;;;;;9.70;8.80;;;;;;;13.47;66.20;99201.03;5073873;28;20021;-77
2023/04/22 02:45:20;;;;;;;9.55;8.63;;;;;;;14.07;66.24;99313.25;5073935;28;20497;-76
2023/04/22 02:47:46;;;;;;;10.63;9.55;;;;;;;13.91;66.34;99287.94;5071724;28;20025;-76
2023/04/22 02:50:11;;;;;;;10.75;9.50;;;;;;;13.28;66.67;99197.34;5073693;28;20051;-76
2023/04/22 02:52:37;;;;;;;10.43;9.35;;;;;;;14.03;66.44;99313.88;5073500;28;20025;-77
2023/04/22 02:55:03;;;;;;;9.95;8.88;;;;;;;13.90;66.65;99304.91;5073841;28;20057;-76
2023/04/22 02:57:28;;;;;;;10.80;9.63;;;;;;;12.56;66.64;99107.13;5072604;28;20063;-77
2023/04/22 02:59:53;;;;;;;10.05;9.15;;;;;;;13.07;66.90;99202.00;5072391;28;20021;-77
2023/04/22 03:02:19;;;;;;;10.52;9.43;;;;;;;13.39;66.97;99269.38;5072316;28;20078;-78
2023/04/22 03:04:44;;;;;;;11.18;10.02;;;;;;;13.15;66.97;99234.41;5073652;28;20545;-76
2023/04/22 03:07:10;;;;;;;11.13;10.02;;;;;;;12.88;67.12;99193.00;5073825;28;20052;-76
2023/04/22 03:09:35;;;;;;;11.93;10.68;;;;;;;13.22;67.43;99253.84;5073341;28;20024;-76
2023/04/22 03:12:01;;;;;;;10.77;9.68;;;;;;;13.35;67.31;99274.25;5073260;28;20023;-76
2023/04/22 03:14:27;;;;;;;11.18;9.60;;;;;;;13.27;67.25;99255.88;5073243;28;20409;-77
2023/04/22 03:16:52;;;;;;;10.57;9.57;;;;;;;13.03;67.26;99225.44;5073076;28;20059;-75
2023/04/22 03:19:18;;;;;;;11.23;10.15;;;;;;;13.59;67.23;99310.81;5073416;28;20028;-76
2023/04/22 03:21:43;;;;;;;10.90;9.85;;;;;;;12.93;67.08;99207.28;5072017;28;20020;-77
2023/04/22 03:24:08;;;;;;;10.32;9.30;;;;;;;13.55;67.10;99291.03;5073354;28;20099;-78
2023/04/22 03:26:34;;;;;;;10.25;9.10;;;;;;;13.56;66.53;99297.97;5071654;28;20048;-77
2023/04/22 03:29:00;;;;;;;10.07;8.73;;;;;;;13.24;66.51;99251.78;5073611;28;20094;-78
2023/04/22 03:31:25;;;;;;;10.55;8.73;;;;;;;13.09;66.43;99227.28;5072196;28;20031;-78
2023/04/22 03:33:51;;;;;;;9.88;8.90;;;;;;;13.68;66.44;99306.94;5073160;28;20409;-77
2023/04/22 03:36:16;;;;;;;12.23;8.40;;;;;;;13.55;66.47;99298.97;5073171;28;20101;-77
2023/04/22 03:38:41;;;;;;;9.70;8.70;;;;;;;13.30;66.32;99261.59;5073221;28;20490;-77
2023/04/22 03:41:07;;;;;;;9.27;8.38;;;;;;;13.61;66.37;99315.91;5072502;28;20067;-77
2023/04/22 03:43:32;;;;;;;8.98;8.07;;;;;;;13.57;66.42;99320.00;5071520;28;20052;-76
2023/04/22 03:45:58;;;;;;;9.50;8.43;;;;;;;13.17;66.42;99261.56;5072893;28;20147;-78
2023/04/22 03:48:24;;;;;;;10.30;8.43;;;;;;;13.05;66.42;99266.63;5072591;28;20028;-77
2023/04/22 03:50:49;;;;;;;11.77;9.55;;;;;;;13.13;66.52;99273.56;5072640;28;20031;-78
2023/04/22 03:53:15;;;;;;;18.27;14.00;;;;;;;13.06;66.28;99264.78;5072511;28;20504;-77
2023/04/22 03:55:40;;;;;;;13.05;11.57;;;;;;;13.04;66.47;99277.41;5072380;28;20016;-77
2023/04/22 03:58:06;;;;;;;11.57;9.48;;;;;;;13.04;66.22;99277.41;5072329;28;20016;-78
2023/04/22 04:00:31;;;;;;;10.38;9.38;;;;;;;12.98;66.16;99278.22;5072290;28;20112;-77
2023/04/22 04:02:56;;;;;;;10.50;9.40;;;;;;;12.89;66.56;99268.81;5071497;28;20025;-78
2023/04/22 04:05:22;;;;;;;10.07;9.07;;;;;;;13.21;66.30;99323.78;5072575;28;20030;-77
2023/04/22 04:07:47;;;;;;;9.77;8.77;;;;;;;13.33;66.26;99340.75;5072422;28;20025;-78
2023/04/22 04:10:13;;;;;;;11.18;10.15;;;;;;;13.04;66.15;99283.53;5071182;28;20024;-78
2023/04/22 04:12:38;;;;;;;12.52;11.32;;;;;;;13.47;65.88;99351.41;5072546;28;20417;-77
2023/04/22 04:15:04;;;;;;;13.27;11.88;;;;;;;12.93;65.98;99278.00;5072387;28;20038;-76
2023/04/22 04:17:30;;;;;;;14.00;12.70;;;;;;;13.09;66.17;99309.44;5072038;28;20505;-76
2023/04/22 04:19:55;;;;;;;15.57;13.98;;;;;;;13.44;65.79;99362.41;5072169;28;20100;-77
2023/04/22 04:22:21;;;;;;;15.25;13.13;;;;;;;13.03;65.91;99297.81;5072004;28;20506;-76
2023/04/22 04:24:47;;;;;;;15.18;13.57;;;;;;;12.97;66.13;99281.88;5072332;28;20025;-77
2023/04/22 04:27:13;;;;;;;15.70;14.10;;;;;;;13.41;65.87;99345.06;5071972;28;20048;-77
2023/04/22 04:29:40;;;;;;;15.80;14.30;;;;;;;13.24;65.57;99301.34;5072075;28;20029;-78
2023/04/22 04:32:07;;;;;;;15.52;14.02;;;;;;;13.24;65.53;99298.69;5072077;28;20052;-74
2023/04/22 04:34:33;;;;;;;15.98;14.38;;;;;;;13.25;65.58;99309.09;5072024;28;20048;-75
2023/04/22 04:36:59;;;;;;;16.80;15.00;;;;;;;13.15;65.51;99291.91;5087364;28;20071;-75
2023/04/22 04:39:27;;;;;;;17.05;14.75;;;;;;;13.28;65.41;99302.59;5072206;28;20446;-75
2023/04/22 04:41:57;;;;;;;15.93;14.23;;;;;;;13.72;65.43;99376.34;5071939;28;20028;-74
2023/04/22 04:44:25;;;;;;;17.63;15.70;;;;;;;13.10;65.30;99278.44;5072135;28;20103;-77
2023/04/22 04:46:51;;;;;;;17.75;15.90;;;;;;;13.72;65.66;99380.81;5071495;28;20489;-77
2023/04/22 04:49:16;;;;;;;20.48;16.50;;;;;;;13.77;65.71;99383.69;5071429;28;20030;-77
2023/04/22 04:51:42;;;;;;;19.80;17.70;;;;;;;13.38;65.48;99342.81;5071392;28;20016;-77
2023/04/22 04:54:07;;;;;;;20.10;17.90;;;;;;;13.26;65.42;99313.38;5071198;28;20039;-78
2023/04/22 04:56:32;;;;;;;20.45;16.55;;;;;;;13.73;65.40;99382.47;5070287;28;20025;-77
2023/04/22 04:58:58;;;;;;;18.20;16.30;;;;;;;13.76;65.50;99388.19;5071610;28;20047;-78
2023/04/22 05:01:24;;;;;;;18.08;16.17;;;;;;;13.23;65.27;99305.84;5071502;28;20077;-77
2023/04/22 05:03:49;;;;;;;18.52;16.40;;;;;;;13.13;65.43;99278.88;5070450;28;20039;-78
2023/04/22 05:06:14;;;;;;;16.77;15.07;;;;;;;13.38;65.23;99321.59;5071437;28;20869;-77
2023/04/22 05:08:40;;;;;;;17.30;15.60;;;;;;;13.83;65.44;99382.88;5071430;28;20043;-78
2023/04/22 05:11:05;;;;;;;16.80;15.20;;;;;;;13.82;65.16;99382.06;5071291;28;20028;-77
2023/04/22 05:13:31;;;;;;;15.80;14.30;;;;;;;13.49;65.36;99328.97;5071446;28;20016;-77
2023/04/22 05:15:56;;;;;;;17.75;16.08;;;;;;;13.54;65.45;99331.00;5071306;28;20016;-79
2023/04/22 05:18:22;;;;;;;16.85;14.95;;;;;;;13.84;65.42;99366.75;5071271;28;20029;-76
2023/04/22 05:20:47;;;;;;;17.77;16.08;;;;;;;13.64;65.27;99331.44;5071142;28;20082;-78
2023/04/22 05:23:13;;;;;;;18.63;16.73;;;;;;;14.09;65.39;99398.00;5071169;28;20497;-77
2023/04/22 05:25:38;;;;;;;19.10;17.13;;;;;;;13.79;65.16;99342.66;5071324;28;20048;-78
2023/04/22 05:28:04;;;;;;;18.42;16.42;;;;;;;13.77;64.99;99339.41;5071200;28;20497;-77
2023/04/22 05:30:29;;;;;;;17.85;16.08;;;;;;;13.73;65.23;99340.00;5070553;28;20024;-78
2023/04/22 05:32:55;;;;;;;19.90;17.88;;;;;;;14.05;65.58;99396.78;5071089;28;20082;-75
2023/04/22 05:35:20;;;;;;;19.33;17.42;;;;;;;13.79;65.66;99353.28;5069728;28;20021;-78
2023/04/22 05:37:45;;;;;;;21.70;18.50;;;;;;;13.98;65.39;99381.66;5071079;28;20028;-78
2023/04/22 05:40:11;;;;;;;16.98;14.80;;;;;;;13.81;65.81;99345.13;5071128;28;20078;-77
2023/04/22 05:42:36;;;;;;;17.80;16.00;;;;;;;13.74;65.84;99331.84;5071068;28;20065;-77
2023/04/22 05:45:02;;;;;;;18.83;15.48;;;;;;;13.93;65.88;99362.88;5070927;28;20493;-76
2023/04/22 05:47:29;;;;;;;18.30;15.60;;;;;;;13.97;66.35;99374.72;5070714;28;20036;-77
2023/04/22 05:49:54;;;;;;;17.65;15.85;;;;;;;13.62;66.23;99314.91;5086542;28;20067;-77
2023/04/22 05:52:19;;;;;;;18.35;15.60;;;;;;;14.09;65.87;99369.63;5070899;28;20055;-78
2023/04/22 05:54:45;;;;;;;20.20;17.90;;;;;;;13.86;65.65;99345.31;5070848;28;20483;-77
2023/04/22 05:57:10;;;;;;;20.05;17.95;;;;;;;14.10;65.99;99389.00;5070748;28;20059;-78
2023/04/22 05:59:35;;;;;;;21.60;18.85;;;;;;;13.86;65.97;99345.31;5070115;28;20024;-77
2023/04/22 06:02:01;;;;;;;21.42;19.20;;;;;;;14.08;65.91;99361.84;5071072;28;20040;-77
2023/04/22 06:04:26;;;;;;;21.08;19.02;;;;;;;14.26;65.68;99378.00;5070995;28;20520;-78
2023/04/22 06:06:54;;;;;;;20.10;18.02;;;;;;;14.49;65.52;99399.66;5074336;28;20032;-77
2023/04/22 06:09:21;;;;;;;20.70;18.25;;;;;;;14.18;65.55;99339.19;5090344;28;20033;-77
2023/04/22 06:11:46;;;;;;;19.73;17.83;;;;;;;14.52;65.65;99374.53;5073329;28;20020;-78
2023/04/22 06:14:12;;;;;;;20.35;17.77;;;;;;;14.80;65.51;99400.81;5074592;28;20029;-76
2023/04/22 06:16:38;;;;;;;19.17;17.13;;;;;;;14.89;65.18;99402.25;5074587;28;20025;-77
2023/04/22 06:19:04;;;;;;;19.13;17.02;;;;;;;14.95;65.22;99404.06;5074532;28;20127;-77
2023/04/22 06:21:31;;;;;;;18.00;16.10;;;;;;;14.43;65.60;99318.16;5074283;28;20532;-77
2023/04/22 06:23:56;;;;;;;18.30;16.35;;;;;;;14.45;65.13;99304.66;5072482;28;20103;-78
2023/04/22 06:26:22;;;;;;;18.50;16.38;;;;;;;15.19;65.26;99403.38;5073563;28;20087;-77
2023/04/22 06:28:48;;;;;;;28.00;18.98;;;;;;;15.32;65.48;99401.69;5074211;28;20028;-78
2023/04/22 06:31:13;;;;;;;18.58;16.67;;;;;;;15.29;65.03;99383.47;5074285;28;20123;-77
2023/04/22 06:33:40;;;;;;;17.73;15.90;;;;;;;15.01;64.81;99350.06;5074400;28;20056;-78
2023/04/22 06:36:05;;;;;;;19.73;17.45;;;;;;;15.33;64.85;99400.66;5074145;28;20021;-78
2023/04/22 06:38:31;;;;;;;20.15;17.98;;;;;;;15.38;64.63;99414.94;5074137;28;20028;-77
2023/04/22 06:40:56;;;;;;;19.05;17.02;;;;;;;15.40;64.94;99410.22;5073988;28;20497;-76
2023/04/22 06:43:22;;;;;;;20.20;17.95;;;;;;;15.32;64.61;99399.84;5073941;28;20416;-77
2023/04/22 06:45:47;;;;;;;19.15;17.25;;;;;;;15.33;64.42;99390.81;5073986;28;20033;-77
2023/04/22 06:48:12;;;;;;;20.73;17.55;;;;;;;15.02;64.80;99333.09;5073895;28;20036;-77
2023/04/22 06:50:38;;;;;;;20.08;17.98;;;;;;;15.65;64.05;99420.19;5073797;28;20512;-78
2023/04/22 06:53:03;;;;;;;21.05;19.02;;;;;;;15.41;63.83;99360.50;5072429;28;20115;-77
2023/04/22 06:55:29;;;;;;;21.33;19.05;;;;;;;15.76;63.88;99415.00;5072503;28;20030;-77
2023/04/22 06:57:55;;;;;;;21.50;19.30;;;;;;;15.42;63.90;99340.84;5073751;28;20481;-78
2023/04/22 07:00:20;;;;;;;21.05;18.95;;;;;;;15.98;63.85;99426.09;5072084;28;20417;-76
2023/04/22 07:02:45;;;;;;;18.73;17.02;;;;;;;16.10;63.80;99420.91;5073351;28;20062;-76
2023/04/22 07:05:11;;;;;;;16.83;15.15;;;;;;;15.76;62.90;99353.78;5073340;28;20027;-77
2023/04/22 07:07:37;;;;;;;17.55;15.55;;;;;;;16.13;62.44;99407.97;5073416;28;20024;-77
2023/04/22 07:10:03;;;;;;;14.13;12.60;;;;;;;15.88;61.78;99367.19;5073484;28;20111;-77
2023/04/22 07:12:28;;;;;;;13.43;12.23;;;;;;;15.99;61.31;99376.34;5073418;28;20121;-77
2023/04/22 07:14:53;;;;;;;16.67;14.95;;;;;;;16.30;61.50;99418.91;5073433;28;20074;-77
2023/04/22 07:17:21;;;;;;;15.95;13.13;;;;;;;16.02;60.98;99362.59;5073128;28;20021;-76
2023/04/22 07:19:47;;;;;;;13.27;11.77;;;;;;;16.47;60.34;99428.00;5088336;28;20041;-77
2023/04/22 07:22:12;;;;;;;12.93;11.25;;;;;;;16.06;60.26;99351.28;5073202;28;20059;-76
2023/04/22 07:24:38;;;;;;;14.07;12.68;;;;;;;16.18;60.26;99376.16;5073311;28;20146;-77
2023/04/22 07:27:04;;;;;;;14.05;11.55;;;;;;;16.54;60.47;99414.59;5072160;28;20040;-77
2023/04/22 07:29:29;;;;;;;14.32;12.93;;;;;;;16.33;59.73;99359.84;5070159;28;20460;-77
2023/04/22 07:31:55;;;;;;;12.68;10.77;;;;;;;16.34;59.74;99364.13;5072270;28;20024;-76
2023/04/22 07:34:20;;;;;;;14.15;11.00;;;;;;;16.87;59.23;99430.28;5072781;28;20062;-77
2023/04/22 07:36:46;;;;;;;18.23;13.75;;;;;;;16.55;58.71;99378.91;5073143;28;20052;-77
2023/04/22 07:39:11;;;;;;;19.38;11.98;;;;;;;16.42;57.61;99358.56;5072954;28;20504;-75
2023/04/22 07:41:36;;;;;;;20.10;11.48;;;;;;;16.47;57.31;99360.56;5072790;28;20409;-78
2023/04/22 07:44:02;;;;;;;47.13;25.65;;;;;;;16.84;57.54;99402.22;5072811;28;20020;-77
2023/04/22 07:46:28;;;;;;;20.50;14.25;;;;;;;17.10;56.68;99433.16;5067610;28;20081;-77
2023/04/22 07:48:54;;;;;;;17.77;11.25;;;;;;;17.08;56.38;99429.84;5071905;28;20046;-75
2023/04/22 07:51:19;;;;;;;31.83;19.63;;;;;;;17.17;56.43;99434.91;5071397;28;20023;-78
2023/04/22 07:53:45;;;;;;;14.48;12.60;;;;;;;17.18;56.63;99437.38;5071447;28;20032;-77
2023/04/22 07:56:10;;;;;;;20.00;13.45;;;;;;;17.12;56.31;99419.59;5067694;28;20025;-78
2023/04/22 07:58:36;;;;;;;14.85;10.88;;;;;;;16.93;56.13;99376.06;5069370;28;20021;-78
2023/04/22 08:01:01;;;;;;;15.40;13.80;;;;;;;17.24;55.62;99409.78;5070983;28;20025;-77
2023/04/22 08:03:26;;;;;;;20.00;12.05;;;;;;;17.46;55.81;99442.16;5071087;28;20031;-78
2023/04/22 08:05:52;;;;;;;11.07;9.70;;;;;;;17.44;55.56;99409.53;5071026;28;20036;-76
2023/04/22 08:08:17;;;;;;;17.02;13.13;;;;;;;17.70;55.49;99429.75;5068840;28;20081;-77
2023/04/22 08:10:43;;;;;;;13.52;11.52;;;;;;;17.21;55.21;99345.38;5070420;28;20025;-77
2023/04/22 08:13:08;;;;;;;15.45;10.45;;;;;;;17.83;55.18;99434.88;5067481;28;20016;-77
2023/04/22 08:15:33;;;;;;;10.88;8.63;;;;;;;17.55;54.74;99371.38;5070198;28;20497;-77
2023/04/22 08:17:59;;;;;;;11.75;10.15;;;;;;;17.74;54.38;99388.19;5069256;28;20028;-77
2023/04/22 08:20:25;;;;;;;8.82;7.97;;;;;;;17.78;54.32;99371.47;5068605;28;20082;-76
2023/04/22 08:22:56;;;;;;;8.77;7.88;;;;;;;18.08;53.46;99408.03;5069268;28;20031;-77
2023/04/22 08:25:21;;;;;;;12.95;9.20;;;;;;;18.38;53.52;99438.16;5064596;28;20020;-77
2023/04/22 08:27:49;;;;;;;10.13;7.60;;;;;;;18.50;52.96;99435.50;5068169;28;20081;-78
2023/04/22 08:30:14;;;;;;;9.75;6.63;;;;;;;18.48;52.53;99431.44;5070619;28;20480;-77
2023/04/22 08:32:40;;;;;;;7.20;5.80;;;;;;;18.23;51.99;99380.88;5065728;28;20066;-77
2023/04/22 08:35:06;;;;;;;8.38;7.13;;;;;;;18.13;52.06;99346.69;5067336;28;20409;-76
2023/04/22 08:37:32;;;;;;;8.65;7.80;;;;;;;18.54;52.19;99387.72;5069415;28;20032;-77
2023/04/22 08:39:58;;;;;;;8.40;7.47;;;;;;;18.45;51.52;99335.66;5062197;28;20027;-77
2023/04/22 08:42:23;;;;;;;11.50;8.30;;;;;;;18.94;51.64;99412.72;5068611;28;20024;-76
2023/04/22 08:44:50;;;;;;;6.47;5.85;;;;;;;18.81;51.29;99380.88;5071330;28;20028;-78
2023/04/22 08:47:17;;;;;;;8.77;7.10;;;;;;;18.65;51.22;99315.56;5084562;28;20107;-76
2023/04/22 08:49:42;;;;;;;8.48;7.15;;;;;;;18.95;51.04;99336.78;5067918;28;20032;-77
2023/04/22 08:52:08;;;;;;;10.07;7.32;;;;;;;18.86;51.12;99353.44;5085732;28;20509;-77
2023/04/22 08:54:36;;;;;;;8.40;6.55;;;;;;;18.93;50.65;99338.88;5091642;28;20032;-77
2023/04/22 08:57:02;;;;;;;14.15;6.78;;;;;;;19.55;50.40;99405.97;5075033;28;20481;-77
2023/04/22 08:59:30;;;;;;;7.32;5.50;;;;;;;19.68;50.15;99386.91;5072423;28;20104;-77
2023/04/22 09:01:57;;;;;;;5.13;4.63;;;;;;;19.46;49.31;99324.38;5070992;28;20083;-76
2023/04/22 09:04:23;;;;;;;6.82;4.60;;;;;;;20.14;49.07;99405.66;5078214;28;20028;-77
2023/04/22 09:06:48;;;;;;;4.28;3.88;;;;;;;19.99;48.16;99371.34;5071147;28;20050;-78
2023/04/22 09:09:14;;;;;;;9.90;4.35;;;;;;;20.07;47.46;99365.63;5077072;28;20066;-77
2023/04/22 09:11:39;;;;;;;6.97;4.45;;;;;;;20.05;47.12;99356.16;5079879;28;20051;-78
2023/04/22 09:14:05;;;;;;;4.88;4.25;;;;;;;20.24;47.28;99392.41;5084466;28;20020;-77
2023/04/22 09:16:32;;;;;;;4.28;3.83;;;;;;;20.53;46.59;99395.84;5091528;28;20036;-77
2023/04/22 09:18:58;;;;;;;5.35;4.07;;;;;;;20.75;46.07;99402.03;5088833;28;20059;-78
2023/04/22 09:21:26;;;;;;;5.80;5.20;;;;;;;21.00;45.82;99396.22;5083489;28;20057;-75
2023/04/22 09:23:53;;;;;;;9.02;4.93;;;;;;;20.66;45.81;99333.78;5088094;28;20028;-77
2023/04/22 09:26:24;;;;;;;5.65;4.88;;;;;;;21.31;45.42;99389.38;5082605;28;20048;-77
2023/04/22 09:28:57;;;;;;;5.55;5.05;;;;;;;20.90;45.42;99321.75;5070542;28;20096;-77
2023/04/22 09:31:23;;;;;;;6.75;6.05;;;;;;;21.32;45.13;99391.00;5102555;28;20134;-77
2023/04/22 09:33:51;;;;;;;6.15;5.55;;;;;;;21.56;44.77;99383.50;5082746;28;20032;-78
2023/04/22 09:36:20;;;;;;;6.05;5.45;;;;;;;21.79;44.27;99376.97;5070277;28;20478;-76
2023/04/22 09:38:57;;;;;;;9.40;7.25;;;;;;;22.06;43.65;99380.47;5084222;28;20030;-77
2023/04/22 09:41:27;;;;;;;8.10;7.30;;;;;;;21.34;43.46;99299.44;5095259;28;20084;-77
2023/04/22 09:43:55;;;;;;;8.52;6.30;;;;;;;20.98;43.98;99290.97;5092898;28;20028;-77
2023/04/22 09:46:22;;;;;;;9.88;5.95;;;;;;;21.12;43.85;99280.66;5077517;28;20476;-77
2023/04/22 09:48:49;;;;;;;7.93;5.50;;;;;;;21.68;42.65;99351.91;5094149;28;20023;-77
2023/04/22 09:51:16;;;;;;;6.97;6.35;;;;;;;21.25;42.87;99275.72;5074459;28;20017;-77
2023/04/22 09:53:41;;;;;;;7.30;5.22;;;;;;;21.36;43.07;99284.69;5078756;28;20134;-77
2023/04/22 09:56:07;;;;;;;6.60;5.38;;;;;;;21.40;42.72;99271.56;5080985;28;20064;-76
2023/04/22 09:58:38;;;;;;;9.20;6.32;;;;;;;22.12;42.38;99349.88;5074613;28;20033;-75
2023/04/22 10:01:03;;;;;;;7.93;5.65;;;;;;;21.94;42.24;99309.91;5074953;28;20033;-76
2023/04/22 10:03:29;;;;;;;8.65;6.97;;;;;;;21.93;42.21;99291.34;5074772;28;20036;-78
2023/04/22 10:05:54;;;;;;;4.70;3.60;;;;;;;22.26;39.54;99335.97;5074759;28;20030;-75
2023/04/22 10:08:20;;;;;;;5.30;3.63;;;;;;;22.34;39.05;99347.09;5073168;28;20032;-78
2023/04/22 10:10:45;;;;;;;7.28;4.47;;;;;;;21.89;39.33;99285.69;5074488;28;20028;-75
2023/04/22 10:13:11;;;;;;;6.03;3.95;;;;;;;21.71;39.79;99292.28;5074462;28;20032;-77
2023/04/22 10:15:51;;;;;;;7.57;5.70;;;;;;;21.88;40.11;99317.13;5072956;28;20028;-76
2023/04/22 10:18:24;;;;;;;10.63;5.60;;;;;;;22.09;40.28;99328.06;5072937;28;20034;-78
2023/04/22 10:20:50;;;;;;;9.63;6.30;;;;;;;22.10;39.38;99265.97;5074143;28;20071;-77
2023/04/22 10:23:22;;;;;;;7.93;5.97;;;;;;;22.23;38.25;99258.50;5074150;28;20501;-77
2023/04/22 10:25:51;;;;;;;5.72;3.42;;;;;;;22.24;37.84;99266.31;5072851;28;20056;-77
2023/04/22 10:28:19;;;;;;;8.05;3.33;;;;;;;21.68;36.84;99239.03;5073516;28;20051;-77
2023/04/22 10:30:45;;;;;;;6.85;2.63;;;;;;;21.89;37.13;99313.38;5074068;28;20413;-77
2023/04/22 10:33:19;;;;;;;5.50;2.90;;;;;;;22.10;37.43;99310.84;5074190;28;20025;-77
2023/04/22 10:36:04;;;;;;;4.57;2.78;;;;;;;22.40;36.88;99312.94;5073839;28;20032;-76
2023/04/22 10:38:33;;;;;;;4.28;2.63;;;;;;;22.58;36.53;99295.56;5073749;28;20396;-78
2023/04/22 10:40:59;;;;;;;5.18;3.15;;;;;;;;;;5073769;28;20029;-76
2023/04/22 10:43:44;;;;;;;3.28;2.35;;;;;;;23.22;35.17;99308.75;5073958;28;20031;-75
2023/04/22 10:46:31;;;;;;;4.15;2.70;;;;;;;23.52;34.91;99308.78;5073770;28;20078;-79
2023/04/22 10:49:10;;;;;;;4.78;3.45;;;;;;;23.57;34.09;99281.88;5073744;28;20107;-77
2023/04/22 10:51:42;;;;;;;4.80;3.15;;;;;;;23.90;33.84;99310.19;5071784;28;20046;-77
2023/04/22 10:54:30;;;;;;;5.32;2.65;;;;;;;24.00;33.71;99304.78;5073550;28;20539;-78
2023/04/22 10:57:06;;;;;;;5.50;2.92;;;;;;;24.34;33.29;99298.81;5072311;28;20514;-77
2023/04/22 10:59:34;;;;;;;8.40;3.78;;;;;;;24.65;32.62;99303.06;5070121;28;20444;-76
2023/04/22 11:02:05;;;;;;;6.22;3.30;;;;;;;24.75;32.35;99304.91;5071746;28;20039;-77
2023/04/22 11:04:31;;;;;;;4.18;3.05;;;;;;;24.82;32.39;99307.31;5073556;28;20028;-79
2023/04/22 11:07:29;;;;;;;9.20;4.47;;;;;;;24.98;32.01;99308.88;5073203;28;20406;-75
2023/04/22 11:09:59;;;;;;;8.00;3.80;;;;;;;24.94;32.45;99305.91;5072285;28;20024;-76
2023/04/22 11:12:42;;;;;;;4.03;2.30;;;;;;;25.12;32.20;99309.88;5073463;28;20025;-75
2023/04/22 11:15:15;;;;;;;4.68;3.30;;;;;;;25.23;31.85;99297.13;5072047;28;20425;-77
2023/04/22 11:17:45;;;;;;;5.90;3.00;;;;;;;25.41;31.59;99282.16;5073354;28;20028;-78
2023/04/22 11:20:13;;;;;;;4.60;3.22;;;;;;;24.99;31.36;99214.06;5073075;28;20029;-77
2023/04/22 11:22:41;;;;;;;5.00;3.17;;;;;;;25.01;31.67;99238.91;5071425;28;20123;-78
2023/04/22 11:25:10;;;;;;;6.47;2.67;;;;;;;25.40;31.05;99304.88;5072745;28;20035;-78